Tilton, South Dakota
Current Conditions -  °F | °C
As of 5:35 AM on Wednesday 26 Nov 2014 (Local Time) from KSPF Reporting Station
Broken Clouds Broken Clouds  
Wind Chill: 19°   Ceiling: 1300
Heat Index: 25°   Visibility: 9mi
Dew Point: 23°   Wind: 5mph
Humidity: 93%   Direction: 310°NW
Pressure: 30.15"   Gusts: NA
Location:  44.253°N, 103.912°W
Report Text: KSPF 261235Z AUTO 31004KT 9SM BKN013 M04/M05 A3015 RMK AO2
Loading
Personal Weather Stations






























Interactive Weather Map New forecast layout! Learn more

10-Day Weather Forecast

Advertisements
Track Severe Weather on mobile